​ ​

Форум клана ЧПУшников

Информация о пользователе

Привет, Гость! Войдите или зарегистрируйтесь.


Вы здесь » Форум клана ЧПУшников » Лазерные станки


Лазерные станки

Тем 561 страница 640 из 685

Тема Ответов Просмотров Последнее сообщение
35 1313 23-04-2016 13:05:00  Valera5609
18 1058 21-04-2016 12:07:58  f.laser
1 187 17-04-2016 23:10:04  megagad
564 Резка с углекислотой  Виктор Краски
23 1074 17-04-2016 08:59:55  Flint2015
13 1982 15-04-2016 11:34:20  ImageLaser
11 348 11-04-2016 14:35:21  MaxMaster
13 428 09-04-2016 20:30:46  aldushin
5 301 06-04-2016 17:28:09  daguss
569 Закрыта Фото готовых работ выполненных на лазере  Администратор  [ 1 2 3  10 ]
991 100222 29-03-2016 17:50:18  sva-don
570 Закрыта Резко упала мощность  Neudrums
10 457 24-03-2016 00:59:57  Neudrums
5 547 22-03-2016 20:12:39  Дилик
572 Прошу помощи.  Назар
5 431 16-03-2016 09:51:09  Назар
8 267 14-03-2016 16:51:53  Расулыч
7 588 10-03-2016 20:36:59  chirik
5 859 07-03-2016 20:32:32  Flint2015
19 1881 04-03-2016 17:27:39  Airside
4 258 29-02-2016 22:43:44  nikson
5 217 27-02-2016 08:50:26  Flint2015
579 Тестирование размера реза  Виктор Краски
9 528 26-02-2016 16:55:55  daguss
580 кривая резка  Восходник
17 530 26-02-2016 00:06:30  semerochka
80 7216 22-02-2016 20:51:36  Kinetic
17 1154 22-02-2016 12:02:26  Kinetic
5 764 14-02-2016 15:24:59  gabber
7 731 14-02-2016 12:43:54  Zippo
12 412 12-02-2016 17:15:38  Yaroslavl
2 256 12-02-2016 10:23:44  Администратор
22 976 07-02-2016 15:27:40  Imobile
6 363 28-01-2016 17:09:21  StarPOM
25 1297 26-01-2016 15:23:58  Zippo
3 286 07-01-2016 00:45:42  okruk
4 294 05-01-2016 10:25:43  markaru
7 269 24-12-2015 12:08:34  lexus80
22 4538 21-12-2015 14:22:31  Kuz
14 464 14-12-2015 15:59:50  YuSTas
8 365 12-12-2015 20:20:10  Shamankiller
15 767 12-12-2015 18:02:39  racon75
38 1120 08-12-2015 23:46:50  asor
35 992 08-12-2015 18:35:57  dm6
8 421 07-12-2015 21:25:28  Dimon
25 963 04-12-2015 21:36:10  Silmaril
601 Лазерный станок Kamach II 1280 AS  радион рашитович
4 263 04-12-2015 20:36:20  Airside
4 337 04-12-2015 10:56:16  Drakonstar
9 742 29-11-2015 02:45:00  Лазорез
38 925 27-11-2015 18:12:36  ЫХ-000
41 1676 27-11-2015 12:34:06  Slym
44 2080 22-11-2015 11:50:31  _king_
607 mpc6525 - завис  Dr_dober
2 303 16-11-2015 12:54:39  Dr_dober
30 2390 09-11-2015 16:17:15  bort747
1 231 07-11-2015 14:48:03  MobileMan
610 Гравивовка на iPhone  Максим1975
9 642 28-10-2015 12:02:57  Восходник
44 2150 25-10-2015 16:54:39  tok17
3 263 25-10-2015 11:20:20  Фёдор Соколов
12 717 24-10-2015 11:53:29  yri71
21 2559 21-10-2015 23:59:06  dmitrymi
10 1067 20-10-2015 16:04:37  YuSTas
2 147 20-10-2015 15:35:36  Kuz
6 276 15-10-2015 09:36:29  Валерия-206
3 232 13-10-2015 11:20:10  Kuz
1 179 06-10-2015 16:34:03  coolmail
29 1413 30-09-2015 12:07:02  olejah
9 456 28-09-2015 04:25:16  BlackOx
622 Расфокусировка  Прокоп
8 357 24-09-2015 20:30:02  Прокоп
14 425 24-09-2015 20:07:38  Lord
6 341 23-09-2015 08:43:57  Airside
3 194 22-09-2015 17:06:12  PalSecam
3 264 22-09-2015 14:56:27  PalSecam
2 199 16-09-2015 22:31:09  Артем-70
35 657 04-09-2015 12:04:29  ecto
5 292 02-09-2015 16:35:06  Halkin
2 447 01-09-2015 22:56:15  Soundlab 77
631 Станок для резки  владимир1070
7 362 27-08-2015 01:47:38  tok17
3 538 05-08-2015 09:46:16  Zeech79
25 865 31-07-2015 11:57:43  Orly
5 436 19-07-2015 11:20:49  Imobile
11 399 15-07-2015 22:09:31  igorzh
5 517 04-07-2015 14:13:00  Fototek
8 3187 25-06-2015 17:57:47  Nokoone
638 Трубка Reci Z8  Zeech79
7 443 25-06-2015 17:53:05  Kuz
1 202 25-06-2015 04:34:38  ThunderLaser_Nolan
2 212 23-06-2015 17:46:06  Halkin

Вы здесь » Форум клана ЧПУшников » Лазерные станки